ADDS METAR Data INFO
IDs: Format: Raw Decoded Include TAF

Data at: 0645 UTC 23 Feb 2018

PHKO 230553Z COR 19007KT 10SM -RA BKN050 BKN075 OVC110 23/20 A3004 RMK AO2 SLP174 P0003 60005 53026 $
PHKO 230514Z 18008KT 9SM -RA FEW019 SCT028 OVC100 A3002 RMK AO2 P0001 $
PHKO 230502Z 18006KT 8SM -RA SCT017 BKN028 OVC110 A3001 RMK AO2 CIG 024V042 P0001 $
PHKO 230453Z 20005KT 10SM -RA SCT015 BKN045 OVC090 24/21 A3001 RMK AO2 RAB35 SLP161 P0000 T02390206 $
PHKO 230353Z 28005KT 10SM SCT015 BKN050 OVC090 24/20 A2998 RMK AO2 SLP152 T02390200
PHKO 230253Z 33006KT 10SM SCT016 OVC100 24/21 A2997 RMK AO2 RAE0158 SLP149 P0000 60002 T02440206 53003
PHKO 230153Z 30004KT 9SM -RA SCT038 BKN049 OVC120 24/21 A2997 RMK AO2 SLP148 P0002 T02390206
PHKO 230053Z 00000KT 10SM -RA BKN110 24/20 A2994 RMK AO2 RAB43 SLP139 P0000 T02440200
PHKO 230033Z 16005KT 10SM FEW012 SCT018 OVC110 24/21 A2994 RMK AO2 T02440206
PHKO 230024Z 16006KT 10SM BKN015 BKN100 BKN120 24/21 A2995 RMK AO2 T02440206
PHKO 222353Z 17011KT 10SM FEW038 BKN100 OVC120 24/21 A2996 RMK AO2 RAE26 SLP146 P0000 60000 T02440206 10250 20222 58016
PHKO 222253Z 16009KT 8SM -RA FEW075 OVC100 25/20 A2999 RMK AO2 RAB53 SLP154 P0000 T02500200
PHKO 222153Z 16015KT 10SM FEW025 OVC110 24/20 A3001 RMK AO2 PK WND 14028/2122 SLP162 T02440200
PHKO 222053Z COR 15011KT 10SM OVC100 25/19 A3001 RMK AO2 SLP161 T02500194 50005
PHKO 221953Z 10005KT 10SM BKN140 24/17 A3002 RMK AO2 SLP167 T02440172
PHKO 221853Z 01011KT 10SM BKN120 23/19 A2999 RMK AO2 SLP155 T02330189
PHKO 221753Z 01009KT 10SM BKN120 22/18 A2999 RMK AO2 SLP156 60001 T02220183 10228 20217 53006 $
PHKO 221653Z 02007KT 10SM CLR 22/18 A2999 RMK AO2 SLP154 T02170183 $
PHKO 221553Z 04005KT 10SM BKN050 22/19 A2997 RMK AO2 RAE25 SLP150 P0001 T02170194 $
PHKO 221453Z AUTO 07003KT 10SM -RA SCT120 22/19 A2997 RMK AO2 RAB45 SLP150 P0000 60000 T02220189 55004 TSNO $
PHKO 221353Z AUTO 07005KT 10SM FEW015 22/18 A2996 RMK AO2 SLP147 T02220183 TSNO $
PHKO 221253Z AUTO 13005KT 10SM CLR 23/18 A2997 RMK AO2 SLP148 T02280183 TSNO $
PHKO 221153Z AUTO 13007KT 10SM FEW120 23/17 A2999 RMK AO2 SLP154 T02280172 10244 20222 58010 TSNO $
PHKO 221053Z AUTO 16004KT 10SM BKN110 23/17 A3000 RMK AO2 SLP158 T02280172 TSNO $
PHKO 220953Z AUTO 14006KT 10SM CLR 23/17 A3001 RMK AO2 SLP164 T02330172 402610200 TSNO $
PHKO 220853Z AUTO 11003KT 10SM CLR 23/18 A3002 RMK AO2 SLP165 T02330178 53006 TSNO $
PHKO 220753Z 08004KT 10SM SCT100 23/18 A3001 RMK AO2 SLP161 T02330183 $
PHKO 220653Z COR 05003KT 10SM SCT100 23/18 A3001 RMK AO2 SLP161 T02330183 $
PHKO 220553Z 04006KT 10SM SCT100 24/19 A3000 RMK AO2 RAB14E28 SLP159 P0000 60000 T02440189 10261 20244 $
PHKO 220453Z 01008KT 10SM FEW050 BKN100 25/19 A2999 RMK AO2 SLP156 T02500189 $
PHKO 220436Z 02008KT 10SM FEW050 BKN100 25/19 A2999 RMK AO2 T02500189 $
PHKO 220353Z COR 01009KT 10SM FEW050 BKN100 25/19 A2997 RMK AO2 SLP150 T02500189
PHKO 212353Z COR 22005KT 10SM OVC150 26/20 A2996 RMK AO2 SLP144 T02560200 10261 20228 58016
PHKO 212253Z 19007KT 10SM OVC150 26/20 A2997 RMK AO2 SLP150 T02560200
PHKO 212153Z 18007KT 10SM CLR 26/20 A2999 RMK AO2 SLP154 T02610200
PHKO 212053Z COR 18008KT 10SM BKN150 26/19 A3000 RMK AO2 SLP160 T02560194 52010
PHKO 211953Z 19007KT 10SM BKN140 25/19 A3000 RMK AO2 SLP158 T02500189
PHKO 211853Z 15008KT 10SM BKN120 24/19 A2998 RMK AO2 SLP152 T02440189